createdAt,value
2023-05-09T00:01:29.945Z,36.80
2023-05-09T00:03:59.829Z,39.50
2023-05-09T00:06:28.215Z,40.13
2023-05-09T00:08:56.796Z,39.53
2023-05-09T00:11:25.091Z,41.97
2023-05-09T00:13:53.347Z,38.57
2023-05-09T00:16:24.631Z,36.83
2023-05-09T00:18:53.449Z,38.37
2023-05-09T00:21:23.114Z,37.77
2023-05-09T00:23:51.349Z,36.60
2023-05-09T00:26:19.529Z,34.43
2023-05-09T00:28:47.788Z,36.50
2023-05-09T00:31:16.022Z,39.90
2023-05-09T00:33:44.287Z,36.43
2023-05-09T00:36:12.513Z,38.00
2023-05-09T00:38:42.122Z,41.00
2023-05-09T00:41:10.373Z,35.43
2023-05-09T00:43:38.574Z,37.63
2023-05-09T00:46:07.000Z,37.50
2023-05-09T00:48:35.265Z,37.33
2023-05-09T00:51:04.862Z,36.53
2023-05-09T00:53:33.129Z,40.07
2023-05-09T00:56:03.783Z,36.30
2023-05-09T00:58:32.250Z,32.70
2023-05-09T01:01:02.183Z,40.47
2023-05-09T01:03:30.839Z,36.00
2023-05-09T01:06:04.542Z,41.50
2023-05-09T01:08:38.196Z,39.73
2023-05-09T01:11:12.811Z,40.60
2023-05-09T01:13:46.142Z,40.40
2023-05-09T01:16:19.716Z,38.23
2023-05-09T01:18:51.612Z,41.97
2023-05-09T01:21:22.139Z,36.70
2023-05-09T01:24:02.410Z,38.70
2023-05-09T01:26:38.241Z,40.27
2023-05-09T01:29:18.213Z,42.00
2023-05-09T01:31:47.101Z,39.70
2023-05-09T01:34:16.833Z,43.80
2023-05-09T01:36:45.909Z,42.93
2023-05-09T01:39:14.904Z,42.50
2023-05-09T01:41:43.100Z,44.47
2023-05-09T01:44:13.158Z,42.67
2023-05-09T01:46:43.373Z,44.30
2023-05-09T01:49:12.959Z,27.67
2023-05-09T01:51:42.961Z,41.70
2023-05-09T01:54:12.871Z,38.90
2023-05-09T01:56:42.624Z,47.27
2023-05-09T01:59:15.925Z,54.13
2023-05-09T02:01:46.769Z,51.43
2023-05-09T02:04:15.945Z,41.30
2023-05-09T02:06:44.708Z,49.70
2023-05-09T02:09:13.100Z,51.43
2023-05-09T02:11:41.414Z,55.77
2023-05-09T02:14:09.692Z,41.30
2023-05-09T02:16:39.395Z,46.87
2023-05-09T02:19:09.055Z,44.60
2023-05-09T02:21:37.387Z,41.03
2023-05-09T02:24:05.987Z,51.33
2023-05-09T02:26:34.441Z,48.17
2023-05-09T02:29:03.948Z,38.30
2023-05-09T02:31:32.615Z,40.90
2023-05-09T02:34:01.208Z,38.13
2023-05-09T02:36:31.578Z,38.83
2023-05-09T02:39:02.500Z,36.83
2023-05-09T02:41:31.865Z,40.90
2023-05-09T02:44:00.077Z,41.17
2023-05-09T02:46:28.450Z,44.03
2023-05-09T02:48:57.077Z,36.50
2023-05-09T02:51:25.282Z,32.93
2023-05-09T02:53:57.584Z,35.07
2023-05-09T02:56:26.015Z,39.07
2023-05-09T02:58:54.220Z,38.40
2023-05-09T03:01:22.522Z,35.73
2023-05-09T03:03:51.225Z,38.30
2023-05-09T03:06:20.581Z,40.07
2023-05-09T03:08:48.762Z,36.17
2023-05-09T03:11:18.357Z,40.03
2023-05-09T03:13:46.563Z,37.37
2023-05-09T03:16:15.658Z,40.50
2023-05-09T03:18:43.948Z,37.00
2023-05-09T03:21:12.363Z,36.90
2023-05-09T03:23:40.703Z,43.57
2023-05-09T03:26:08.924Z,33.47
2023-05-09T03:28:38.526Z,50.37
2023-05-09T03:31:06.969Z,48.60
2023-05-09T03:33:35.310Z,43.20
2023-05-09T03:36:03.523Z,50.07
2023-05-09T03:38:31.806Z,58.80
2023-05-09T03:41:00.142Z,45.50
2023-05-09T03:43:28.347Z,44.53
2023-05-09T03:45:57.950Z,47.30
2023-05-09T03:48:26.191Z,48.97
2023-05-09T03:50:54.456Z,44.37
2023-05-09T03:53:23.045Z,37.40
2023-05-09T03:55:51.321Z,47.07
2023-05-09T03:58:20.584Z,55.00
2023-05-09T04:00:48.849Z,42.20
2023-05-09T04:03:18.522Z,41.67
2023-05-09T04:05:46.835Z,38.37
2023-05-09T04:08:15.545Z,42.77
2023-05-09T04:10:45.255Z,41.37
2023-05-09T04:13:14.603Z,46.00
2023-05-09T04:15:42.848Z,41.40
2023-05-09T04:18:11.115Z,44.33
2023-05-09T04:20:40.760Z,42.57
2023-05-09T04:23:11.051Z,50.63
2023-05-09T04:25:39.262Z,45.73
2023-05-09T04:28:08.364Z,47.33
2023-05-09T04:30:37.138Z,46.33
2023-05-09T04:33:05.734Z,53.90
2023-05-09T04:35:34.041Z,30.43
2023-05-09T04:38:04.801Z,39.47
2023-05-09T04:40:33.270Z,36.03
2023-05-09T04:43:01.545Z,36.97
2023-05-09T04:45:30.839Z,41.27
2023-05-09T04:47:59.100Z,51.23
2023-05-09T04:50:27.358Z,47.30
2023-05-09T04:52:55.567Z,47.10
2023-05-09T04:55:25.157Z,52.47
2023-05-09T04:57:53.411Z,42.40
2023-05-09T05:00:21.725Z,39.80
2023-05-09T05:02:50.044Z,45.43
2023-05-09T05:05:24.632Z,42.40
2023-05-09T05:07:54.170Z,38.00
2023-05-09T05:10:22.423Z,49.37
2023-05-09T05:12:51.986Z,40.97
2023-05-09T05:15:20.439Z,45.30
2023-05-09T05:17:48.773Z,41.60
2023-05-09T05:20:22.272Z,39.50
2023-05-09T05:22:50.494Z,45.87
2023-05-09T05:25:18.754Z,45.67
2023-05-09T05:27:46.972Z,41.63
2023-05-09T05:30:16.849Z,46.13
2023-05-09T05:32:45.145Z,38.57
2023-05-09T05:35:13.795Z,39.07
2023-05-09T05:37:42.870Z,35.93
2023-05-09T05:40:11.468Z,37.47
2023-05-09T05:42:39.736Z,34.97
2023-05-09T05:45:08.943Z,41.73
2023-05-09T05:47:38.990Z,33.87
2023-05-09T05:50:11.689Z,32.40
2023-05-09T05:52:40.003Z,30.67
2023-05-09T05:55:08.674Z,37.73
2023-05-09T05:57:37.768Z,31.70
2023-05-09T06:00:09.050Z,29.77
2023-05-09T06:02:39.116Z,26.17
2023-05-09T06:05:08.475Z,30.93
2023-05-09T06:07:36.778Z,28.77
2023-05-09T06:10:05.721Z,25.27
2023-05-09T06:12:33.909Z,28.80
2023-05-09T06:15:02.096Z,24.90
2023-05-09T06:17:30.414Z,37.67
2023-05-09T06:20:00.025Z,27.73
2023-05-09T06:22:28.292Z,24.87
2023-05-09T06:24:56.510Z,25.57
2023-05-09T06:27:24.806Z,26.70
2023-05-09T06:29:53.391Z,28.17
2023-05-09T06:32:21.659Z,27.40
2023-05-09T06:34:49.917Z,26.63
2023-05-09T06:37:19.526Z,28.00
2023-05-09T06:39:47.716Z,25.53
2023-05-09T06:42:16.478Z,22.80
2023-05-09T06:44:44.778Z,19.80
2023-05-09T06:47:13.015Z,19.30
2023-05-09T06:49:41.249Z,22.00
2023-05-09T06:52:09.476Z,20.07
2023-05-09T06:54:39.034Z,15.17
2023-05-09T06:57:07.306Z,16.73
2023-05-09T06:59:35.502Z,17.50
2023-05-09T07:02:03.885Z,17.13
2023-05-09T07:04:32.244Z,18.43
2023-05-09T07:07:01.199Z,17.03
2023-05-09T07:09:29.424Z,16.57
2023-05-09T07:11:58.978Z,19.10
2023-05-09T07:14:27.402Z,16.17
2023-05-09T07:17:05.101Z,16.70
2023-05-09T07:19:38.394Z,18.10
2023-05-09T07:22:06.624Z,23.20
2023-05-09T07:24:35.887Z,22.10
2023-05-09T07:27:06.103Z,19.83
2023-05-09T07:29:34.379Z,19.50
2023-05-09T07:32:02.687Z,15.57
2023-05-09T07:34:30.954Z,14.43
2023-05-09T07:36:59.357Z,12.53
2023-05-09T07:39:27.679Z,16.23
2023-05-09T07:41:55.962Z,16.87
2023-05-09T07:44:25.816Z,16.90
2023-05-09T07:46:55.418Z,14.07
2023-05-09T07:49:23.792Z,13.30
2023-05-09T07:51:51.981Z,13.03
2023-05-09T07:54:20.350Z,16.40
2023-05-09T07:56:48.548Z,15.17
2023-05-09T07:59:17.074Z,11.93
2023-05-09T08:01:46.693Z,12.60
2023-05-09T08:04:15.007Z,10.47
2023-05-09T08:06:43.263Z,16.63
2023-05-09T08:09:11.545Z,12.57
2023-05-09T08:11:40.087Z,14.63
2023-05-09T08:14:08.362Z,13.20
2023-05-09T08:16:36.627Z,13.33
2023-05-09T08:19:06.383Z,12.57
2023-05-09T08:21:34.574Z,11.77
2023-05-09T08:24:02.935Z,12.33
2023-05-09T08:26:31.124Z,13.63
2023-05-09T08:28:59.362Z,14.13
2023-05-09T08:31:27.938Z,14.00
2023-05-09T08:33:56.252Z,17.47
2023-05-09T08:36:26.080Z,12.57
2023-05-09T08:38:54.333Z,17.20
2023-05-09T08:41:27.943Z,13.60
2023-05-09T08:43:58.107Z,9.63
2023-05-09T08:46:28.686Z,10.57
2023-05-09T08:48:57.704Z,7.33
2023-05-09T08:51:27.423Z,13.63
2023-05-09T08:53:55.913Z,8.13
2023-05-09T08:56:24.365Z,11.90
2023-05-09T08:58:53.488Z,9.67
2023-05-09T09:01:22.368Z,10.97
2023-05-09T09:03:51.030Z,8.20
2023-05-09T09:06:19.370Z,8.60
2023-05-09T09:08:49.920Z,10.20
2023-05-09T09:11:19.842Z,9.53
2023-05-09T09:13:48.453Z,7.30
2023-05-09T09:16:22.467Z,8.47
2023-05-09T09:18:53.469Z,10.07
2023-05-09T09:21:22.479Z,7.10
2023-05-09T09:23:53.695Z,7.43
2023-05-09T09:26:22.313Z,12.70
2023-05-09T09:28:50.579Z,9.00
2023-05-09T09:31:22.686Z,8.10
2023-05-09T09:33:51.250Z,7.30
2023-05-09T09:36:28.312Z,5.70
2023-05-09T09:39:01.452Z,8.23
2023-05-09T09:41:33.395Z,10.90
2023-05-09T09:44:07.827Z,12.30
2023-05-09T09:46:45.816Z,9.37
2023-05-09T09:49:14.563Z,9.40
2023-05-09T09:51:43.012Z,9.80
2023-05-09T09:54:13.146Z,12.00
2023-05-09T09:56:42.171Z,11.53
2023-05-09T09:59:11.291Z,7.53
2023-05-09T10:01:55.380Z,10.30
2023-05-09T10:04:23.688Z,6.80
2023-05-09T10:06:55.700Z,6.50
2023-05-09T10:09:25.764Z,6.90
2023-05-09T10:11:54.527Z,6.43
2023-05-09T10:14:23.716Z,7.40
2023-05-09T10:16:53.581Z,5.97
2023-05-09T10:19:22.873Z,9.53
2023-05-09T10:21:52.701Z,7.40
2023-05-09T10:24:24.344Z,9.93
2023-05-09T10:26:54.797Z,9.43
2023-05-09T10:29:25.852Z,7.17
2023-05-09T10:31:56.245Z,9.60
2023-05-09T10:34:26.836Z,6.80
2023-05-09T10:36:55.861Z,7.07
2023-05-09T10:39:24.365Z,8.00
2023-05-09T10:41:54.344Z,6.60
2023-05-09T10:44:23.561Z,7.10
2023-05-09T10:46:51.999Z,6.40
2023-05-09T10:49:20.563Z,5.70
2023-05-09T10:51:51.191Z,8.53
2023-05-09T10:54:30.690Z,5.53
2023-05-09T10:57:00.778Z,7.80
2023-05-09T10:59:37.372Z,8.43
2023-05-09T11:02:06.058Z,8.60
2023-05-09T11:04:34.478Z,5.03
2023-05-09T11:07:02.714Z,42.87
2023-05-09T11:09:33.107Z,8.37
2023-05-09T11:12:12.895Z,6.33
2023-05-09T11:14:42.377Z,7.20
2023-05-09T11:17:11.501Z,7.90
2023-05-09T11:19:58.614Z,7.83
2023-05-09T11:22:28.027Z,7.67
2023-05-09T11:25:01.642Z,9.00
2023-05-09T11:27:38.405Z,7.20
2023-05-09T11:30:07.631Z,6.33
2023-05-09T11:32:36.832Z,6.87
2023-05-09T11:35:09.531Z,8.67
2023-05-09T11:37:41.731Z,6.80
2023-05-09T11:40:13.865Z,5.90
2023-05-09T11:42:45.570Z,7.03
2023-05-09T11:45:14.503Z,9.50
2023-05-09T11:47:43.085Z,6.93
2023-05-09T11:50:11.998Z,7.00
2023-05-09T11:52:40.888Z,7.30
2023-05-09T11:55:12.070Z,6.40
2023-05-09T11:57:41.927Z,6.97
2023-05-09T12:00:12.775Z,8.60
2023-05-09T12:02:41.400Z,6.90
2023-05-09T12:05:11.769Z,6.87
2023-05-09T12:07:40.475Z,7.70
2023-05-09T12:10:09.683Z,8.13
2023-05-09T12:12:38.206Z,12.40
2023-05-09T12:15:08.889Z,8.43
2023-05-09T12:17:38.755Z,6.47
2023-05-09T12:20:07.603Z,8.07
2023-05-09T12:22:37.412Z,7.83
2023-05-09T12:25:08.393Z,8.60
2023-05-09T12:27:36.936Z,8.97
2023-05-09T12:30:08.532Z,8.87
2023-05-09T12:32:39.135Z,8.93
2023-05-09T12:35:11.213Z,11.17
2023-05-09T12:37:39.710Z,8.13
2023-05-09T12:40:08.744Z,6.30
2023-05-09T12:42:37.635Z,7.97
2023-05-09T12:45:06.599Z,8.17
2023-05-09T12:47:34.898Z,7.80
2023-05-09T12:50:04.238Z,7.83
2023-05-09T12:52:39.735Z,8.33
2023-05-09T12:55:15.787Z,7.47
2023-05-09T12:57:44.221Z,6.77
2023-05-09T13:00:13.203Z,6.70
2023-05-09T13:02:42.545Z,7.07
2023-05-09T13:05:11.393Z,6.63
2023-05-09T13:07:44.468Z,7.60
2023-05-09T13:10:13.986Z,12.40
2023-05-09T13:12:45.003Z,7.50
2023-05-09T13:15:14.470Z,11.67
2023-05-09T13:17:43.134Z,7.37
2023-05-09T13:20:11.698Z,7.40
2023-05-09T13:22:39.923Z,9.60
2023-05-09T13:25:10.715Z,5.70
2023-05-09T13:27:39.298Z,5.87
2023-05-09T13:30:08.550Z,5.37
2023-05-09T13:32:37.463Z,5.73
2023-05-09T13:35:07.972Z,6.53
2023-05-09T13:37:36.259Z,8.13
2023-05-09T13:40:05.396Z,5.10
2023-05-09T13:42:35.844Z,4.07
2023-05-09T13:45:04.383Z,9.10
2023-05-09T13:47:32.946Z,7.33
2023-05-09T13:50:01.184Z,5.47
2023-05-09T13:52:29.447Z,4.00
2023-05-09T13:54:58.246Z,4.30
2023-05-09T13:57:26.464Z,4.50
2023-05-09T13:59:55.998Z,6.00
2023-05-09T14:02:24.572Z,4.10
2023-05-09T14:04:53.128Z,5.10
2023-05-09T14:07:21.714Z,4.87
2023-05-09T14:09:54.040Z,4.77
2023-05-09T14:12:27.153Z,4.27
2023-05-09T14:14:56.743Z,4.13
2023-05-09T14:17:25.001Z,6.17
2023-05-09T14:19:53.218Z,4.60
2023-05-09T14:22:21.562Z,4.00
2023-05-09T14:24:50.345Z,6.47
2023-05-09T14:27:18.564Z,4.50
2023-05-09T14:29:46.846Z,4.60
2023-05-09T14:32:16.856Z,5.23
2023-05-09T14:34:45.669Z,4.90
2023-05-09T14:37:14.538Z,4.60
2023-05-09T14:39:43.074Z,4.63
2023-05-09T14:42:11.739Z,4.03
2023-05-09T14:44:40.015Z,4.30
2023-05-09T14:47:09.005Z,5.50
2023-05-09T14:49:39.691Z,4.40
2023-05-09T14:52:07.872Z,10.37
2023-05-09T14:54:36.367Z,6.00
2023-05-09T14:57:05.486Z,5.40
2023-05-09T14:59:36.126Z,5.33
2023-05-09T15:02:05.343Z,3.80
2023-05-09T15:04:33.909Z,4.37
2023-05-09T15:07:03.628Z,3.50
2023-05-09T15:09:31.852Z,4.03
2023-05-09T15:12:00.047Z,3.80
2023-05-09T15:14:28.359Z,4.40
2023-05-09T15:16:59.086Z,4.27
2023-05-09T15:19:31.093Z,4.53
2023-05-09T15:21:59.540Z,3.10
2023-05-09T15:24:29.702Z,5.33
2023-05-09T15:26:57.929Z,3.27
2023-05-09T15:29:26.214Z,3.10
2023-05-09T15:31:55.765Z,2.83
2023-05-09T15:34:23.966Z,3.17
2023-05-09T15:36:52.240Z,4.00
2023-05-09T15:39:20.567Z,3.53
2023-05-09T15:41:50.143Z,4.10
2023-05-09T15:44:18.347Z,2.90
2023-05-09T15:46:46.529Z,2.97
2023-05-09T15:49:14.741Z,4.67
2023-05-09T15:51:43.260Z,4.27
2023-05-09T15:54:11.573Z,3.20
2023-05-09T15:56:39.830Z,4.03
2023-05-09T15:59:09.900Z,3.37
2023-05-09T16:01:38.209Z,3.40
2023-05-09T16:04:07.139Z,3.60
2023-05-09T16:06:35.377Z,4.93
2023-05-09T16:09:04.437Z,4.13
2023-05-09T16:11:33.112Z,4.13
2023-05-09T16:14:01.484Z,6.00
2023-05-09T16:16:31.234Z,3.50
2023-05-09T16:18:59.507Z,3.90
2023-05-09T16:21:29.235Z,2.90
2023-05-09T16:23:58.072Z,4.30
2023-05-09T16:26:26.364Z,6.30
2023-05-09T16:28:54.586Z,6.50
2023-05-09T16:31:26.303Z,4.00
2023-05-09T16:33:56.542Z,6.70
2023-05-09T16:36:24.915Z,3.20
2023-05-09T16:38:53.262Z,3.13
2023-05-09T16:41:21.596Z,4.03
2023-05-09T16:43:50.125Z,11.43
2023-05-09T16:46:18.383Z,4.93
2023-05-09T16:48:46.589Z,4.03
2023-05-09T16:51:16.306Z,4.27
2023-05-09T16:53:44.559Z,2.70
2023-05-09T16:56:12.786Z,2.60
2023-05-09T16:58:41.878Z,3.00
2023-05-09T17:01:10.166Z,3.03
2023-05-09T17:03:38.854Z,5.13
2023-05-09T17:06:07.370Z,2.60
2023-05-09T17:08:36.952Z,2.97
2023-05-09T17:11:05.446Z,2.50
2023-05-09T17:13:33.707Z,2.90
2023-05-09T17:16:01.981Z,3.53
2023-05-09T17:18:37.702Z,4.23
2023-05-09T17:21:06.923Z,2.97
2023-05-09T17:23:36.876Z,3.90
2023-05-09T17:26:05.107Z,2.93
2023-05-09T17:28:33.570Z,5.70
2023-05-09T17:31:03.235Z,2.77
2023-05-09T17:33:31.438Z,4.10
2023-05-09T17:36:00.035Z,2.77
2023-05-09T17:38:28.328Z,3.43
2023-05-09T17:40:58.287Z,2.80
2023-05-09T17:43:28.284Z,3.10
2023-05-09T17:45:56.787Z,3.00
2023-05-09T17:48:25.006Z,3.70
2023-05-09T17:50:53.254Z,2.50
2023-05-09T17:53:21.650Z,3.37
2023-05-09T17:55:49.923Z,3.27
2023-05-09T17:58:20.725Z,2.87
2023-05-09T18:00:49.001Z,4.23
2023-05-09T18:03:17.347Z,4.23
2023-05-09T18:05:45.600Z,2.77
2023-05-09T18:08:13.858Z,2.43
2023-05-09T18:10:42.649Z,2.50
2023-05-09T18:13:11.105Z,4.67
2023-05-09T18:15:41.231Z,3.03
2023-05-09T18:18:10.228Z,3.27
2023-05-09T18:20:39.879Z,2.60
2023-05-09T18:23:08.179Z,3.27
2023-05-09T18:25:36.625Z,2.50
2023-05-09T18:28:04.846Z,4.70
2023-05-09T18:30:33.103Z,2.57
2023-05-09T18:33:02.830Z,2.60
2023-05-09T18:35:31.609Z,2.73
2023-05-09T18:37:59.904Z,3.00
2023-05-09T18:40:28.654Z,3.13
2023-05-09T18:42:56.840Z,4.10
2023-05-09T18:45:25.202Z,2.20
2023-05-09T18:47:53.532Z,2.40
2023-05-09T18:50:23.131Z,3.00
2023-05-09T18:52:51.452Z,3.67
2023-05-09T18:55:21.844Z,2.70
2023-05-09T18:57:50.326Z,3.67
2023-05-09T19:00:18.635Z,3.10
2023-05-09T19:02:46.952Z,3.03
2023-05-09T19:05:15.821Z,3.10
2023-05-09T19:07:45.510Z,3.63
2023-05-09T19:10:14.340Z,3.10
2023-05-09T19:12:42.810Z,2.93
2023-05-09T19:15:12.314Z,3.53
2023-05-09T19:17:40.536Z,4.30
2023-05-09T19:20:09.505Z,3.50
2023-05-09T19:22:39.108Z,3.50
2023-05-09T19:25:09.252Z,4.10
2023-05-09T19:27:37.458Z,3.00
2023-05-09T19:30:05.986Z,3.73
2023-05-09T19:32:34.238Z,4.50
2023-05-09T19:35:02.494Z,2.80
2023-05-09T19:37:30.697Z,3.50
2023-05-09T19:39:58.949Z,3.37
2023-05-09T19:42:28.528Z,3.40
2023-05-09T19:44:56.725Z,4.53
2023-05-09T19:47:24.961Z,4.00
2023-05-09T19:49:53.546Z,3.03
2023-05-09T19:52:23.238Z,4.27
2023-05-09T19:54:51.567Z,3.73
2023-05-09T19:57:20.591Z,3.90
2023-05-09T19:59:51.003Z,4.70
2023-05-09T20:02:19.302Z,4.83
2023-05-09T20:04:49.829Z,4.50
2023-05-09T20:07:18.449Z,4.53
2023-05-09T20:09:46.664Z,4.60
2023-05-09T20:12:14.924Z,4.80
2023-05-09T20:14:44.220Z,5.43
2023-05-09T20:17:13.930Z,5.23
2023-05-09T20:19:43.130Z,4.40
2023-05-09T20:22:11.374Z,5.23
2023-05-09T20:24:39.597Z,5.10
2023-05-09T20:27:07.946Z,6.20
2023-05-09T20:29:36.188Z,4.90
2023-05-09T20:32:04.676Z,8.03
2023-05-09T20:34:34.308Z,5.50
2023-05-09T20:37:02.627Z,4.83
2023-05-09T20:39:30.848Z,5.27
2023-05-09T20:42:02.257Z,5.80
2023-05-09T20:44:30.722Z,7.27
2023-05-09T20:46:59.027Z,6.60
2023-05-09T20:49:27.263Z,6.10
2023-05-09T20:51:56.875Z,5.80
2023-05-09T20:54:25.093Z,7.73
2023-05-09T20:56:53.509Z,6.43
2023-05-09T20:59:21.759Z,8.33
2023-05-09T21:01:52.112Z,10.50
2023-05-09T21:04:20.354Z,7.37
2023-05-09T21:06:48.566Z,7.90
2023-05-09T21:09:18.411Z,8.83
2023-05-09T21:11:46.592Z,7.00
2023-05-09T21:14:14.845Z,8.23
2023-05-09T21:16:44.010Z,7.73
2023-05-09T21:19:12.346Z,7.70
2023-05-09T21:21:40.605Z,7.60
2023-05-09T21:24:09.791Z,8.40
2023-05-09T21:26:39.330Z,8.90
2023-05-09T21:29:07.633Z,10.50
2023-05-09T21:31:35.879Z,9.47
2023-05-09T21:34:09.631Z,8.83
2023-05-09T21:36:38.406Z,9.67
2023-05-09T21:39:09.196Z,10.30
2023-05-09T21:41:39.351Z,9.73
2023-05-09T21:44:08.485Z,10.10
2023-05-09T21:46:36.852Z,12.43
2023-05-09T21:49:05.764Z,13.87
2023-05-09T21:51:34.065Z,12.47
2023-05-09T21:54:02.316Z,10.83
2023-05-09T21:56:30.724Z,13.20
2023-05-09T21:59:00.268Z,10.43
2023-05-09T22:01:28.742Z,10.47
2023-05-09T22:03:57.092Z,11.83
2023-05-09T22:06:25.323Z,10.47
2023-05-09T22:08:53.502Z,12.70
2023-05-09T22:11:22.196Z,11.17
2023-05-09T22:13:50.494Z,14.37
2023-05-09T22:16:20.152Z,11.13
2023-05-09T22:18:48.383Z,15.60
2023-05-09T22:21:16.619Z,14.70
2023-05-09T22:23:44.878Z,17.30
2023-05-09T22:26:13.119Z,14.20
2023-05-09T22:28:41.424Z,15.40
2023-05-09T22:31:09.634Z,12.77
2023-05-09T22:33:39.240Z,18.07
2023-05-09T22:36:08.752Z,18.70
2023-05-09T22:38:37.006Z,13.80
2023-05-09T22:41:05.274Z,15.37
2023-05-09T22:43:38.715Z,9.63
2023-05-09T22:46:08.086Z,17.13
2023-05-09T22:48:36.359Z,14.90
2023-05-09T22:51:05.913Z,17.67
2023-05-09T22:53:34.199Z,16.17
2023-05-09T22:56:02.763Z,18.40
2023-05-09T22:58:30.986Z,17.70
2023-05-09T23:00:59.192Z,17.40
2023-05-09T23:03:27.516Z,18.33
2023-05-09T23:05:55.792Z,12.53
2023-05-09T23:08:25.433Z,16.07
2023-05-09T23:10:53.631Z,16.30
2023-05-09T23:13:22.322Z,15.50
2023-05-09T23:15:50.576Z,16.40
2023-05-09T23:18:20.935Z,15.60
2023-05-09T23:20:49.128Z,13.60
2023-05-09T23:23:17.645Z,14.00
2023-05-09T23:25:47.226Z,16.87
2023-05-09T23:28:15.468Z,14.97
2023-05-09T23:30:43.821Z,15.03
2023-05-09T23:33:12.224Z,11.33
2023-05-09T23:35:40.471Z,10.03
2023-05-09T23:38:08.734Z,9.03
2023-05-09T23:40:37.002Z,10.47
2023-05-09T23:43:06.587Z,11.10
2023-05-09T23:45:34.799Z,9.87
2023-05-09T23:48:03.186Z,11.60
2023-05-09T23:50:31.459Z,11.90
2023-05-09T23:52:59.713Z,16.67
2023-05-09T23:55:27.942Z,18.30
2023-05-09T23:57:56.189Z,19.00
